Time;durP1;ratioP1;P1;durP2;ratioP2;P2;SDS_P1;SDS_P2;PMS_P1;PMS_P2;Temp;Humidity;BMP_temperature;BMP_pressure;BME280_temperature;BME280_humidity;BME280_pressure;Samples;Min_cycle;Max_cycle;Signal;HPM_P1;HPM_P2
2022/12/17 13:06:04;;;;;;;33.72;5.13;;;;;;;;;;5031164;28;20105;-52
2022/12/17 13:08:31;;;;;;;41.38;5.75;;;;;;;;;;5031205;28;20029;-47
2022/12/17 13:11:09;;;;;;;55.20;5.80;;;;;;;;;;5031025;28;20030;-48
2022/12/17 13:13:39;;;;;;;52.38;5.57;;;;;;;;;;5031053;28;20037;-52
2022/12/17 13:16:28;;;;;;;53.88;5.90;;;;;;;;;;5032823;28;20084;-48
2022/12/17 13:19:03;;;;;;;70.93;8.15;;;;;;;;;;5034651;28;20483;-46
2022/12/17 13:21:31;;;;;;;84.85;9.48;;;;;;;;;;5034617;28;20045;-48
2022/12/17 13:24:00;;;;;;;76.50;7.78;;;;;;;;;;5033259;28;20559;-50
2022/12/17 13:26:39;;;;;;;67.57;8.20;;;;;;;;;;5034575;28;20537;-51
2022/12/17 13:29:19;;;;;;;62.15;7.15;;;;;;;;;;5034699;28;20025;-48
2022/12/17 13:31:52;;;;;;;56.13;6.47;;;;;;;;;;5034272;28;20043;-52
2022/12/17 13:34:35;;;;;;;76.07;8.73;;;;;;;;;;5033975;28;20033;-48
2022/12/17 13:37:08;;;;;;;70.25;7.78;;;;;;;;;;5034260;28;20025;-52
2022/12/17 13:39:41;;;;;;;79.22;8.02;;;;;;;;;;5033525;28;20033;-48
2022/12/17 13:42:18;;;;;;;69.13;7.80;;;;;;;;;;5033479;28;20110;-46
2022/12/17 13:44:46;;;;;;;81.95;7.63;;;;;;;;;;5032496;28;20048;-54
2022/12/17 13:47:39;;;;;;;71.63;7.60;;;;;;;;;;5029717;28;20032;-48
2022/12/17 13:50:24;;;;;;;56.80;6.78;;;;;;;;;;5027783;28;20056;-52
2022/12/17 13:52:51;;;;;;;57.33;6.82;;;;;;;;;;5033568;28;20403;-48
2022/12/17 13:55:20;;;;;;;66.38;7.60;;;;;;;;;;5033682;28;20399;-46
2022/12/17 13:57:48;;;;;;;49.47;6.75;;;;;;;;;;5031409;28;20036;-46
2022/12/17 14:00:25;;;;;;;52.03;6.70;;;;;;;;;;5033591;28;20029;-46
2022/12/17 14:02:53;;;;;;;51.00;6.47;;;;;;;;;;5033441;28;20036;-47
2022/12/17 14:05:29;;;;;;;59.50;6.95;;;;;;;;;;5032568;28;20021;-48
2022/12/17 14:08:00;;;;;;;63.35;7.70;;;;;;;;;;5032499;28;20025;-49
2022/12/17 14:10:28;;;;;;;69.68;8.82;;;;;;;;;;5033664;28;20143;-45
2022/12/17 14:13:04;;;;;;;60.97;7.03;;;;;;;;;;5032674;28;20032;-47
2022/12/17 14:15:32;;;;;;;51.70;6.30;;;;;;;;;;5033500;28;20587;-48
2022/12/17 14:17:59;;;;;;;53.00;6.97;;;;;;;;;;5032734;28;20056;-49
2022/12/17 14:20:29;;;;;;;48.83;7.18;;;;;;;;;;5032551;28;20030;-46
2022/12/17 14:23:02;;;;;;;62.17;6.25;;;;;;;;;;5033460;28;20037;-46
2022/12/17 14:25:35;;;;;;;58.92;7.03;;;;;;;;;;5033162;28;20633;-45
2022/12/17 14:28:03;;;;;;;59.55;7.72;;;;;;;;;;5032934;28;20025;-49
2022/12/17 14:30:33;;;;;;;57.92;6.88;;;;;;;;;;5015636;28;20073;-46
2022/12/17 14:33:00;;;;;;;52.25;7.47;;;;;;;;;;5032694;28;20140;-46
2022/12/17 14:35:29;;;;;;;44.30;6.68;;;;;;;;;;5033488;28;20026;-46
2022/12/17 14:37:56;;;;;;;53.67;7.07;;;;;;;;;;5033422;28;20048;-45
2022/12/17 14:40:24;;;;;;;72.20;7.00;;;;;;;;;;5033050;28;20076;-47
2022/12/17 14:42:51;;;;;;;55.38;6.65;;;;;;;;;;5032944;28;20074;-45
2022/12/17 14:45:25;;;;;;;67.32;8.02;;;;;;;;;;5033260;28;20025;-45
2022/12/17 14:47:59;;;;;;;62.72;7.38;;;;;;;;;;5032912;28;20033;-44
2022/12/17 14:50:26;;;;;;;57.20;7.55;;;;;;;;;;5033296;28;20029;-45
2022/12/17 14:52:54;;;;;;;51.83;7.43;;;;;;;;;;5032754;28;20045;-46
2022/12/17 14:55:38;;;;;;;66.18;7.18;;;;;;;;;;5032785;28;20037;-47
2022/12/17 14:58:08;;;;;;;60.15;7.55;;;;;;;;;;5033179;28;20026;-46
2022/12/17 15:00:38;;;;;;;73.97;8.23;;;;;;;;;;5032775;28;20025;-48
2022/12/17 15:03:05;;;;;;;55.35;7.72;;;;;;;;;;5032556;28;20540;-49
2022/12/17 15:05:32;;;;;;;55.63;7.25;;;;;;;;;;5032961;28;20091;-46
2022/12/17 15:08:07;;;;;;;54.97;7.43;;;;;;;;;;5031960;28;20033;-48
2022/12/17 15:10:34;;;;;;;89.72;9.75;;;;;;;;;;5032453;28;20029;-47
2022/12/17 15:13:00;;;;;;;55.88;8.43;;;;;;;;;;5032581;28;20053;-48
2022/12/17 15:15:27;;;;;;;81.07;9.75;;;;;;;;;;5032564;28;20082;-48
2022/12/17 15:17:54;;;;;;;70.75;8.77;;;;;;;;;;5031833;28;20399;-47
2022/12/17 15:20:21;;;;;;;79.55;10.10;;;;;;;;;;5050451;28;20135;-47
2022/12/17 15:22:48;;;;;;;81.30;9.70;;;;;;;;;;5049594;28;20033;-47
2022/12/17 15:25:16;;;;;;;71.75;9.23;;;;;;;;;;5032243;28;20100;-47
2022/12/17 15:27:44;;;;;;;70.38;9.45;;;;;;;;;;5032407;28;20021;-46
2022/12/17 15:30:15;;;;;;;70.60;10.20;;;;;;;;;;5032203;28;20044;-46
2022/12/17 15:32:42;;;;;;;80.07;10.07;;;;;;;;;;5031895;28;20025;-46
2022/12/17 15:35:10;;;;;;;73.32;10.27;;;;;;;;;;5032156;28;20025;-48
2022/12/17 15:37:37;;;;;;;83.85;9.90;;;;;;;;;;5032002;28;20021;-47
2022/12/17 15:40:04;;;;;;;67.68;9.25;;;;;;;;;;5031781;28;20028;-47
2022/12/17 15:45:17;;;;;;;71.65;9.85;;;;;;;;;;5032027;28;20067;-48
2022/12/17 15:47:44;;;;;;;54.97;9.30;;;;;;;;;;5032020;28;20021;-47
2022/12/17 15:50:10;;;;;;;65.07;8.15;;;;;;;;;;5031925;28;20041;-51
2022/12/17 15:52:37;;;;;;;53.28;8.80;;;;;;;;;;5032911;28;20082;-48
2022/12/17 15:55:05;;;;;;;73.90;10.52;;;;;;;;;;5032483;28;20083;-45
2022/12/17 15:57:32;;;;;;;75.68;9.48;;;;;;;;;;5031834;28;20125;-46
2022/12/17 15:59:59;;;;;;;76.55;10.35;;;;;;;;;;5032035;28;20386;-45
2022/12/17 16:02:26;;;;;;;73.75;10.20;;;;;;;;;;5031352;28;20083;-49
2022/12/17 16:04:52;;;;;;;80.03;9.40;;;;;;;;;;5031756;28;20037;-47
2022/12/17 16:07:19;;;;;;;81.18;11.65;;;;;;;;;;5031931;28;20025;-47
2022/12/17 16:09:46;;;;;;;83.93;11.30;;;;;;;;;;5031505;28;20025;-46
2022/12/17 16:12:13;;;;;;;96.60;11.35;;;;;;;;;;5031565;28;20483;-48
2022/12/17 16:14:40;;;;;;;71.28;9.73;;;;;;;;;;5031814;28;20500;-47
2022/12/17 16:17:07;;;;;;;64.43;8.98;;;;;;;;;;5031661;28;20490;-46
2022/12/17 16:19:34;;;;;;;60.05;8.25;;;;;;;;;;5031870;28;20017;-45
2022/12/17 16:22:01;;;;;;;75.47;9.75;;;;;;;;;;5014053;28;20431;-46
2022/12/17 16:24:28;;;;;;;65.13;8.93;;;;;;;;;;5031325;28;20022;-45
2022/12/17 16:26:55;;;;;;;63.08;8.65;;;;;;;;;;5031642;28;20017;-46
2022/12/17 16:29:22;;;;;;;92.85;10.45;;;;;;;;;;5027009;28;20037;-45
2022/12/17 16:31:50;;;;;;;69.72;8.43;;;;;;;;;;5029395;28;20026;-48
2022/12/17 16:34:17;;;;;;;68.90;8.32;;;;;;;;;;5035512;28;20025;-47
2022/12/17 16:36:44;;;;;;;55.20;8.25;;;;;;;;;;5050487;28;20025;-48
2022/12/17 16:39:15;;;;;;;74.88;9.05;;;;;;;;;;5033094;28;20036;-49
2022/12/17 16:41:42;;;;;;;67.97;9.65;;;;;;;;;;5050496;28;20045;-47
2022/12/17 16:44:09;;;;;;;53.28;8.43;;;;;;;;;;5050916;28;20111;-46
2022/12/17 16:46:38;;;;;;;60.95;8.95;;;;;;;;;;5050442;28;20112;-46
2022/12/17 16:49:06;;;;;;;58.65;8.70;;;;;;;;;;5050552;28;20017;-46
2022/12/17 16:51:33;;;;;;;53.17;9.48;;;;;;;;;;5053705;28;20773;-46
2022/12/17 16:54:03;;;;;;;68.22;9.50;;;;;;;;;;5038676;28;20045;-52
2022/12/17 16:56:30;;;;;;;67.50;10.02;;;;;;;;;;5050064;28;20021;-46
2022/12/17 16:58:57;;;;;;;66.32;9.27;;;;;;;;;;5039662;28;20031;-49
2022/12/17 17:01:26;;;;;;;73.20;9.88;;;;;;;;;;5023508;28;20071;-47
2022/12/17 17:03:54;;;;;;;63.15;8.95;;;;;;;;;;5023523;28;20105;-48
2022/12/17 17:06:21;;;;;;;67.53;8.63;;;;;;;;;;5004899;28;20057;-49
2022/12/17 17:08:48;;;;;;;58.80;8.77;;;;;;;;;;5031929;28;20112;-48
2022/12/17 17:11:18;;;;;;;68.47;8.32;;;;;;;;;;5034550;28;20087;-47
2022/12/17 17:13:45;;;;;;;79.95;9.68;;;;;;;;;;5029221;28;20074;-51
2022/12/17 17:16:12;;;;;;;81.50;8.85;;;;;;;;;;5022614;28;20498;-50
2022/12/17 17:18:39;;;;;;;85.13;9.63;;;;;;;;;;5034134;28;20159;-49
2022/12/17 17:21:24;;;;;;;65.53;9.43;;;;;;;;;;5032989;28;20025;-49
2022/12/17 17:23:53;;;;;;;72.90;17.33;;;;;;;;;;5033744;28;20033;-47
2022/12/17 17:26:20;;;;;;;115.78;38.55;;;;;;;;;;5017903;28;20021;-46
2022/12/17 17:28:48;;;;;;;103.65;30.00;;;;;;;;;;5014419;28;20057;-47
2022/12/17 17:31:15;;;;;;;112.72;38.53;;;;;;;;;;5014145;28;20580;-54
2022/12/17 17:33:45;;;;;;;139.70;41.75;;;;;;;;;;5013036;28;20380;-46
2022/12/17 17:36:17;;;;;;;123.15;41.50;;;;;;;;;;5014118;28;20079;-47
2022/12/17 17:38:44;;;;;;;119.10;40.75;;;;;;;;;;4996566;28;20439;-48
2022/12/17 17:41:13;;;;;;;114.45;39.47;;;;;;;;;;4998203;28;20034;-45
2022/12/17 17:43:40;;;;;;;113.70;43.67;;;;;;;;;;5020242;28;20029;-47
2022/12/17 17:46:08;;;;;;;100.55;36.05;;;;;;;;;;5029942;28;20029;-51
2022/12/17 17:48:35;;;;;;;129.93;42.40;;;;;;;;;;5021672;28;20029;-50
2022/12/17 17:51:07;;;;;;;111.00;39.10;;;;;;;;;;5014112;28;20138;-45
2022/12/17 17:53:34;;;;;;;104.05;37.88;;;;;;;;;;4996956;28;20095;-54
2022/12/17 17:56:13;;;;;;;97.50;36.28;;;;;;;;;;5013852;28;20085;-47
2022/12/17 17:58:42;;;;;;;92.13;36.70;;;;;;;;;;5014027;28;20042;-48
2022/12/17 18:01:10;;;;;;;92.13;35.45;;;;;;;;;;5012772;28;20049;-45
2022/12/17 18:03:37;;;;;;;97.47;35.42;;;;;;;;;;5026607;28;20032;-46
2022/12/17 18:06:07;;;;;;;91.50;34.53;;;;;;;;;;5019575;28;20089;-48
2022/12/17 18:08:35;;;;;;;94.65;30.92;;;;;;;;;;5022344;28;20034;-52
2022/12/17 18:11:04;;;;;;;92.22;29.15;;;;;;;;;;5020420;28;20033;-48
2022/12/17 18:16:17;;;;;;;84.25;26.70;;;;;;;;;;5023337;28;20562;-51
2022/12/17 18:18:44;;;;;;;82.10;26.17;;;;;;;;;;5022812;28;20029;-49
2022/12/17 18:21:15;;;;;;;79.68;25.02;;;;;;;;;;5022118;28;20109;-47
2022/12/17 18:23:43;;;;;;;154.90;30.05;;;;;;;;;;5023638;28;20036;-55
2022/12/17 18:26:17;;;;;;;279.98;37.90;;;;;;;;;;5021358;28;20040;-46
2022/12/17 18:28:45;;;;;;;251.20;35.15;;;;;;;;;;5020714;28;20025;-58
2022/12/17 18:31:13;;;;;;;132.57;28.23;;;;;;;;;;5022492;28;20380;-48
2022/12/17 18:33:42;;;;;;;126.45;26.70;;;;;;;;;;5021723;28;20091;-46
2022/12/17 18:36:13;;;;;;;105.38;24.00;;;;;;;;;;5021008;28;20018;-50
2022/12/17 18:38:41;;;;;;;85.27;21.37;;;;;;;;;;5011335;28;20426;-47
2022/12/17 18:43:22;;;;;;;88.80;21.92;;;;;;;;;;5005560;28;20998;-50
2022/12/17 18:43:57;;;;;;;90.75;21.33;;;;;;;;;;5021530;28;20042;-50
2022/12/17 18:46:24;;;;;;;83.22;19.60;;;;;;;;;;5030704;28;20035;-54
2022/12/17 18:48:52;;;;;;;86.68;19.88;;;;;;;;;;5051968;28;20390;-50
2022/12/17 18:51:20;;;;;;;77.35;18.55;;;;;;;;;;5046178;28;20037;-49
2022/12/17 18:53:48;;;;;;;80.28;18.98;;;;;;;;;;5050581;28;20053;-46
2022/12/17 18:56:15;;;;;;;71.47;17.45;;;;;;;;;;5051988;28;20072;-48
2022/12/17 18:58:42;;;;;;;80.07;18.05;;;;;;;;;;5050629;28;20031;-46
2022/12/17 19:01:17;;;;;;;70.95;18.67;;;;;;;;;;5051732;28;20025;-46
2022/12/17 19:03:44;;;;;;;70.13;15.90;;;;;;;;;;5046565;28;20360;-49
2022/12/17 19:06:12;;;;;;;59.58;15.07;;;;;;;;;;5051297;28;20083;-51
2022/12/17 19:08:38;;;;;;;60.95;14.55;;;;;;;;;;5050598;28;20378;-47
2022/12/17 19:11:06;;;;;;;64.32;13.35;;;;;;;;;;5051356;28;20124;-47
2022/12/17 19:13:34;;;;;;;71.18;14.73;;;;;;;;;;5046539;28;20120;-50
2022/12/17 19:16:06;;;;;;;63.85;13.60;;;;;;;;;;5051305;28;20072;-46
2022/12/17 19:18:33;;;;;;;63.08;14.50;;;;;;;;;;5050975;28;20032;-47
2022/12/17 19:21:00;;;;;;;64.40;13.90;;;;;;;;;;5050018;28;20079;-46
2022/12/17 19:23:28;;;;;;;60.35;12.70;;;;;;;;;;5050084;28;20449;-46
2022/12/17 19:25:56;;;;;;;70.70;14.18;;;;;;;;;;5050880;28;20082;-47
2022/12/17 19:28:23;;;;;;;60.28;13.05;;;;;;;;;;5050681;28;20031;-46
2022/12/17 19:30:56;;;;;;;63.65;13.55;;;;;;;;;;5049666;28;20475;-46
2022/12/17 19:33:23;;;;;;;57.92;12.32;;;;;;;;;;5045593;28;20390;-50
2022/12/17 19:35:50;;;;;;;55.55;12.88;;;;;;;;;;5050853;28;20031;-46
2022/12/17 19:38:17;;;;;;;60.17;12.45;;;;;;;;;;5051318;28;20078;-49
2022/12/17 19:40:44;;;;;;;51.72;11.23;;;;;;;;;;5051006;28;20048;-47
2022/12/17 19:43:11;;;;;;;48.42;10.68;;;;;;;;;;5050968;28;20399;-47
2022/12/17 19:45:38;;;;;;;46.38;11.57;;;;;;;;;;5051116;28;20075;-47
2022/12/17 19:48:05;;;;;;;51.97;10.73;;;;;;;;;;5051133;28;20032;-46
2022/12/17 19:50:32;;;;;;;41.67;9.95;;;;;;;;;;5050877;28;20037;-46
2022/12/17 19:52:59;;;;;;;42.20;9.82;;;;;;;;;;5051548;28;20045;-47
2022/12/17 19:55:26;;;;;;;47.92;9.93;;;;;;;;;;5051138;28;20035;-46
2022/12/17 19:57:53;;;;;;;48.50;9.77;;;;;;;;;;5051171;28;20426;-46
2022/12/17 20:00:20;;;;;;;51.70;9.63;;;;;;;;;;5051542;28;20116;-45
2022/12/17 20:02:47;;;;;;;45.65;9.32;;;;;;;;;;5050606;28;20429;-47
2022/12/17 20:05:14;;;;;;;47.40;8.50;;;;;;;;;;5050711;28;20040;-52
2022/12/17 20:07:41;;;;;;;41.58;9.02;;;;;;;;;;5050833;28;20505;-49
2022/12/17 20:10:08;;;;;;;47.22;9.18;;;;;;;;;;5050563;28;20036;-52
2022/12/17 20:12:35;;;;;;;45.97;8.43;;;;;;;;;;5050568;28;20064;-51
2022/12/17 20:15:02;;;;;;;49.38;9.55;;;;;;;;;;5050910;28;20390;-55
2022/12/17 20:17:29;;;;;;;40.75;8.90;;;;;;;;;;5051300;28;20071;-52
2022/12/17 20:19:56;;;;;;;47.83;8.93;;;;;;;;;;5051031;28;20033;-58
2022/12/17 20:22:23;;;;;;;47.20;9.75;;;;;;;;;;5050727;28;20021;-50
2022/12/17 20:24:50;;;;;;;45.17;8.50;;;;;;;;;;5054168;28;20379;-50
2022/12/17 20:27:17;;;;;;;43.08;8.75;;;;;;;;;;5056711;28;20395;-53
2022/12/17 20:29:44;;;;;;;41.92;8.63;;;;;;;;;;5057479;28;20064;-52
2022/12/17 20:32:11;;;;;;;40.83;7.97;;;;;;;;;;5057829;28;20116;-53
2022/12/17 20:34:37;;;;;;;32.00;7.80;;;;;;;;;;5057228;28;20025;-51
2022/12/17 20:37:04;;;;;;;37.42;7.90;;;;;;;;;;5057171;28;20025;-51
2022/12/17 20:39:31;;;;;;;42.08;9.02;;;;;;;;;;5057287;28;20060;-51
2022/12/17 20:41:58;;;;;;;42.30;7.32;;;;;;;;;;5057031;28;20082;-49
2022/12/17 20:44:25;;;;;;;42.08;7.35;;;;;;;;;;5057656;28;20162;-47
2022/12/17 20:46:52;;;;;;;32.17;7.18;;;;;;;;;;5039846;28;20513;-51
2022/12/17 20:49:19;;;;;;;38.40;7.63;;;;;;;;;;5057820;28;20025;-53
2022/12/17 20:51:46;;;;;;;38.42;6.90;;;;;;;;;;5057570;28;20115;-49
2022/12/17 20:54:13;;;;;;;47.72;7.57;;;;;;;;;;5057782;28;20102;-50
2022/12/17 20:56:40;;;;;;;44.00;7.85;;;;;;;;;;5057559;28;20130;-53
2022/12/17 20:59:08;;;;;;;50.13;8.40;;;;;;;;;;5057721;28;20411;-51
2022/12/17 21:01:36;;;;;;;47.25;8.27;;;;;;;;;;5057620;28;20029;-53
2022/12/17 21:04:06;;;;;;;38.13;8.10;;;;;;;;;;5057736;28;20028;-52
2022/12/17 21:06:40;;;;;;;37.30;7.50;;;;;;;;;;5057461;28;20478;-52
2022/12/17 21:09:07;;;;;;;32.60;7.80;;;;;;;;;;5057801;28;20025;-54
2022/12/17 21:11:35;;;;;;;34.95;6.63;;;;;;;;;;5056178;28;20041;-58
2022/12/17 21:14:09;;;;;;;37.10;6.95;;;;;;;;;;5057465;28;20098;-53
2022/12/17 21:16:37;;;;;;;33.78;7.25;;;;;;;;;;5057464;28;20059;-51
2022/12/17 21:19:05;;;;;;;30.70;6.38;;;;;;;;;;5036901;28;20029;-53
2022/12/17 21:21:33;;;;;;;35.22;6.68;;;;;;;;;;5037619;28;20029;-50
2022/12/17 21:24:01;;;;;;;31.40;6.38;;;;;;;;;;5037636;28;20025;-52
2022/12/17 21:26:32;;;;;;;35.55;6.93;;;;;;;;;;5036876;28;20041;-49
2022/12/17 21:28:59;;;;;;;30.13;6.20;;;;;;;;;;5037580;28;20045;-49
2022/12/17 21:31:29;;;;;;;34.63;6.35;;;;;;;;;;5036989;28;20515;-53
2022/12/17 21:33:58;;;;;;;39.30;6.43;;;;;;;;;;5036769;28;20515;-53
2022/12/17 21:36:25;;;;;;;32.63;6.20;;;;;;;;;;5033098;28;20482;-52
2022/12/17 21:38:52;;;;;;;33.20;5.75;;;;;;;;;;5033974;28;20029;-50
2022/12/17 21:41:24;;;;;;;34.00;5.97;;;;;;;;;;5033811;28;20029;-46
2022/12/17 21:43:54;;;;;;;30.02;5.60;;;;;;;;;;5033929;28;20029;-48
2022/12/17 21:46:22;;;;;;;32.97;5.47;;;;;;;;;;5033763;28;20041;-50
2022/12/17 21:48:50;;;;;;;29.92;5.78;;;;;;;;;;5033905;28;20032;-50
2022/12/17 21:51:17;;;;;;;40.55;5.63;;;;;;;;;;5033839;28;20042;-48
2022/12/17 21:53:44;;;;;;;36.13;6.43;;;;;;;;;;5033456;28;20041;-49
2022/12/17 21:56:12;;;;;;;26.48;4.72;;;;;;;;;;5033649;28;20495;-47
2022/12/17 21:58:40;;;;;;;34.78;5.63;;;;;;;;;;5034009;28;20021;-47
2022/12/17 22:01:09;;;;;;;26.65;5.22;;;;;;;;;;5033689;28;20021;-52
2022/12/17 22:03:36;;;;;;;24.55;4.97;;;;;;;;;;5033385;28;20041;-50
2022/12/17 22:06:07;;;;;;;40.58;6.25;;;;;;;;;;5033337;28;20104;-50
2022/12/17 22:08:34;;;;;;;31.25;5.05;;;;;;;;;;5033637;28;20034;-55
2022/12/17 22:11:01;;;;;;;29.58;5.20;;;;;;;;;;5031890;28;20045;-47
2022/12/17 22:16:13;;;;;;;23.27;5.45;;;;;;;;;;5033378;28;20228;-51
2022/12/17 22:18:40;;;;;;;35.47;4.88;;;;;;;;;;5033335;28;20481;-53
2022/12/17 22:21:08;;;;;;;40.63;6.05;;;;;;;;;;5033430;28;20777;-48
2022/12/17 22:23:35;;;;;;;45.80;6.30;;;;;;;;;;5033242;28;20104;-47
2022/12/17 22:26:01;;;;;;;45.38;5.50;;;;;;;;;;5033066;28;20037;-50
2022/12/17 22:28:28;;;;;;;35.63;5.65;;;;;;;;;;5033213;28;20480;-51
2022/12/17 22:33:40;;;;;;;46.72;6.03;;;;;;;;;;5033195;28;20040;-48
2022/12/17 22:36:08;;;;;;;29.08;5.30;;;;;;;;;;5032959;28;20039;-50
2022/12/17 22:38:35;;;;;;;41.58;5.68;;;;;;;;;;5033184;28;20022;-54
2022/12/17 22:41:06;;;;;;;43.88;5.57;;;;;;;;;;5032877;28;20135;-48
2022/12/17 22:43:34;;;;;;;49.00;5.70;;;;;;;;;;5033029;28;20029;-50
2022/12/17 22:46:05;;;;;;;56.00;5.70;;;;;;;;;;5031629;28;20395;-48
2022/12/17 22:48:33;;;;;;;42.75;5.15;;;;;;;;;;5032491;28;20030;-50
2022/12/17 22:51:07;;;;;;;48.38;5.15;;;;;;;;;;5032725;28;20040;-51
2022/12/17 22:53:34;;;;;;;47.63;5.47;;;;;;;;;;5032878;28;20045;-50
2022/12/17 22:56:05;;;;;;;64.40;5.80;;;;;;;;;;5032561;28;20568;-47
2022/12/17 22:58:32;;;;;;;60.38;7.03;;;;;;;;;;5032709;28;20160;-53
2022/12/17 23:00:59;;;;;;;54.38;6.63;;;;;;;;;;5048012;28;20507;-52
2022/12/17 23:03:26;;;;;;;63.38;6.93;;;;;;;;;;5032253;28;20502;-49
2022/12/17 23:06:05;;;;;;;44.08;5.95;;;;;;;;;;5032491;28;20036;-47
2022/12/17 23:08:31;;;;;;;59.28;6.95;;;;;;;;;;5032740;28;20033;-49
2022/12/17 23:10:59;;;;;;;70.95;8.07;;;;;;;;;;5032072;28;20061;-46
2022/12/17 23:13:26;;;;;;;67.38;7.70;;;;;;;;;;5047853;28;20061;-49
2022/12/17 23:15:53;;;;;;;83.65;8.07;;;;;;;;;;5032524;28;20029;-49
2022/12/17 23:18:20;;;;;;;49.42;7.65;;;;;;;;;;5032019;28;20056;-47
2022/12/17 23:20:47;;;;;;;79.82;8.65;;;;;;;;;;5032104;28;20091;-47
2022/12/17 23:23:14;;;;;;;67.88;8.30;;;;;;;;;;5032346;28;20037;-47
2022/12/17 23:25:41;;;;;;;68.00;8.95;;;;;;;;;;5031952;28;20029;-55
2022/12/17 23:28:07;;;;;;;181.02;17.45;;;;;;;;;;5032497;28;20025;-59
2022/12/17 23:30:36;;;;;;;372.35;35.95;;;;;;;;;;5032135;28;20048;-60
2022/12/17 23:33:03;;;;;;;172.90;19.35;;;;;;;;;;5031845;28;20037;-59
2022/12/17 23:35:31;;;;;;;101.68;11.70;;;;;;;;;;5032197;28;20033;-53
2022/12/17 23:37:58;;;;;;;89.95;9.75;;;;;;;;;;5031940;28;20475;-55
2022/12/17 23:40:25;;;;;;;77.15;10.02;;;;;;;;;;5031670;28;20064;-53
2022/12/17 23:42:52;;;;;;;82.68;9.98;;;;;;;;;;5032141;28;20037;-56
2022/12/17 23:45:19;;;;;;;91.32;9.48;;;;;;;;;;5031742;28;20087;-53
2022/12/17 23:47:46;;;;;;;102.80;11.98;;;;;;;;;;5031955;28;20459;-51
2022/12/17 23:50:13;;;;;;;134.10;13.68;;;;;;;;;;5031628;28;20024;-54
2022/12/17 23:52:40;;;;;;;162.65;16.55;;;;;;;;;;5031623;28;20053;-53
2022/12/17 23:55:07;;;;;;;133.68;17.15;;;;;;;;;;5031419;28;20037;-56
2022/12/17 23:57:34;;;;;;;144.43;16.45;;;;;;;;;;5031732;28;20033;-55
